Time;durP1;ratioP1;P1;durP2;ratioP2;P2;SDS_P1;SDS_P2;PMS_P1;PMS_P2;Temp;Humidity;BMP_temperature;BMP_pressure;BME280_temperature;BME280_humidity;BME280_pressure;Samples;Min_cycle;Max_cycle;Signal;HPM_P1;HPM_P2
2022/01/29 00:00:28;;;;;;;41.50;21.27;;;;;;;;;;5064783;28;20045;-90
2022/01/29 00:03:07;;;;;;;36.72;21.83;;;;;;;;;;5047762;28;20388;-91
2022/01/29 00:05:33;;;;;;;39.50;21.63;;;;;;;;;;5072553;28;20036;-92
2022/01/29 00:07:59;;;;;;;36.50;21.02;;;;;;;;;;5090538;28;20517;-92
2022/01/29 00:10:28;;;;;;;38.20;21.10;;;;;;;;;;5078007;28;20040;-90
2022/01/29 00:12:56;;;;;;;38.53;21.23;;;;;;;;;;5040438;28;20036;-90
2022/01/29 00:15:22;;;;;;;40.28;21.70;;;;;;;;;;5057946;28;20051;-95
2022/01/29 00:17:48;;;;;;;39.10;23.10;;;;;;;;;;5093219;28;20113;-92
2022/01/29 00:20:14;;;;;;;36.92;22.52;;;;;;;;;;5110479;28;20244;-90
2022/01/29 00:22:41;;;;;;;37.90;22.38;;;;;;;;;;5109224;28;20043;-86
2022/01/29 00:25:08;;;;;;;37.30;23.13;;;;;;;;;;5092883;28;20043;-90
2022/01/29 00:27:36;;;;;;;38.47;22.75;;;;;;;;;;5076341;28;20043;-90
2022/01/29 00:30:07;;;;;;;37.95;23.50;;;;;;;;;;5059693;28;20066;-93
2022/01/29 00:32:34;;;;;;;37.83;24.02;;;;;;;;;;5092901;28;20043;-91
2022/01/29 00:35:00;;;;;;;40.13;25.55;;;;;;;;;;5075938;28;20074;-91
2022/01/29 00:37:27;;;;;;;41.88;24.83;;;;;;;;;;5091529;28;20050;-92
2022/01/29 00:39:53;;;;;;;41.58;25.50;;;;;;;;;;5075456;28;20048;-90
2022/01/29 00:42:20;;;;;;;41.15;25.50;;;;;;;;;;5058341;28;20085;-89
2022/01/29 00:44:46;;;;;;;42.15;27.35;;;;;;;;;;5059940;28;20386;-92
2022/01/29 00:47:15;;;;;;;44.38;26.40;;;;;;;;;;5110608;28;20074;-88
2022/01/29 00:49:41;;;;;;;49.30;27.70;;;;;;;;;;5093590;28;20044;-91
2022/01/29 00:52:08;;;;;;;42.53;26.35;;;;;;;;;;5093711;28;20050;-91
2022/01/29 00:54:34;;;;;;;42.88;27.58;;;;;;;;;;5075546;28;20525;-88
2022/01/29 00:57:01;;;;;;;40.97;26.80;;;;;;;;;;5060094;28;20487;-91
2022/01/29 00:59:27;;;;;;;43.08;28.05;;;;;;;;;;5060693;28;20047;-91
2022/01/29 01:01:53;;;;;;;43.30;27.38;;;;;;;;;;5059336;28;20043;-93
2022/01/29 01:04:19;;;;;;;45.63;27.60;;;;;;;;;;5114010;28;20122;-92
2022/01/29 01:06:45;;;;;;;44.53;26.30;;;;;;;;;;5076724;28;20032;-92
2022/01/29 01:09:11;;;;;;;45.42;27.55;;;;;;;;;;5076627;28;20090;-91
2022/01/29 01:11:38;;;;;;;43.80;27.85;;;;;;;;;;5060546;28;20109;-88
2022/01/29 01:14:04;;;;;;;46.25;28.90;;;;;;;;;;5110483;28;20036;-91
2022/01/29 01:16:31;;;;;;;47.17;28.20;;;;;;;;;;5060653;28;20039;-85
2022/01/29 01:21:48;;;;;;;43.75;28.85;;;;;;;;;;5110009;28;20109;-88
2022/01/29 01:24:14;;;;;;;45.65;27.27;;;;;;;;;;5055719;28;20036;-91
2022/01/29 01:26:42;;;;;;;46.33;27.58;;;;;;;;;;5108759;28;20695;-92
2022/01/29 01:29:08;;;;;;;41.40;26.27;;;;;;;;;;5058437;28;20032;-90
2022/01/29 01:31:35;;;;;;;45.67;28.48;;;;;;;;;;5093564;28;20040;-92
2022/01/29 01:34:03;;;;;;;44.88;27.52;;;;;;;;;;5077560;28;20162;-91
2022/01/29 01:36:29;;;;;;;47.45;26.85;;;;;;;;;;5109257;28;20411;-94
2022/01/29 01:39:04;;;;;;;40.50;26.38;;;;;;;;;;5058103;28;20044;-92
2022/01/29 01:41:36;;;;;;;45.05;26.73;;;;;;;;;;5058220;28;20063;-91
2022/01/29 01:44:03;;;;;;;46.55;26.77;;;;;;;;;;5076400;28;20040;-90
2022/01/29 01:46:29;;;;;;;44.83;28.02;;;;;;;;;;5109310;28;20088;-94
2022/01/29 01:48:56;;;;;;;44.53;25.73;;;;;;;;;;5108606;28;20039;-94
2022/01/29 01:51:22;;;;;;;43.40;25.27;;;;;;;;;;5091872;28;20495;-93
2022/01/29 01:53:49;;;;;;;41.30;26.45;;;;;;;;;;5075483;28;20491;-94
2022/01/29 01:56:15;;;;;;;43.92;25.40;;;;;;;;;;5074447;28;20046;-92
2022/01/29 01:58:41;;;;;;;41.70;25.50;;;;;;;;;;5074557;28;20044;-91
2022/01/29 02:01:07;;;;;;;45.05;25.23;;;;;;;;;;5108693;28;20039;-91
2022/01/29 02:03:33;;;;;;;44.78;26.38;;;;;;;;;;5109217;28;20445;-93
2022/01/29 02:06:00;;;;;;;47.25;26.35;;;;;;;;;;5074044;28;20040;-93
2022/01/29 02:08:26;;;;;;;46.55;26.15;;;;;;;;;;5058351;28;20508;-90
2022/01/29 02:10:53;;;;;;;48.65;25.38;;;;;;;;;;5056700;28;20043;-89
2022/01/29 02:13:19;;;;;;;45.63;25.75;;;;;;;;;;5107055;28;20040;-89
2022/01/29 02:15:47;;;;;;;51.40;25.88;;;;;;;;;;5059991;28;20036;-86
2022/01/29 02:18:15;;;;;;;47.03;26.35;;;;;;;;;;5057287;28;20453;-89
2022/01/29 02:20:43;;;;;;;51.33;27.08;;;;;;;;;;5097969;28;20482;-93
2022/01/29 02:23:10;;;;;;;48.70;27.30;;;;;;;;;;5075870;28;20067;-89
2022/01/29 02:25:36;;;;;;;45.58;25.63;;;;;;;;;;5057655;28;20484;-92
2022/01/29 02:28:04;;;;;;;49.38;26.15;;;;;;;;;;5074000;28;20097;-89
2022/01/29 02:30:32;;;;;;;49.65;26.23;;;;;;;;;;5054248;28;20048;-89
2022/01/29 02:32:59;;;;;;;46.63;25.80;;;;;;;;;;5104504;28;20048;-90
2022/01/29 02:35:27;;;;;;;51.33;27.02;;;;;;;;;;5058957;28;20127;-90
2022/01/29 02:37:54;;;;;;;48.30;24.40;;;;;;;;;;5056474;28;20035;-92
2022/01/29 02:40:22;;;;;;;55.05;25.52;;;;;;;;;;5057598;28;20131;-90
2022/01/29 02:42:49;;;;;;;49.17;25.33;;;;;;;;;;5056295;28;20162;-90
2022/01/29 02:45:16;;;;;;;50.15;25.85;;;;;;;;;;5073190;28;20036;-94
2022/01/29 02:47:42;;;;;;;44.78;25.83;;;;;;;;;;5091208;28;20072;-93
2022/01/29 02:50:09;;;;;;;50.47;25.95;;;;;;;;;;5107586;28;20462;-89
2022/01/29 02:52:35;;;;;;;44.60;24.75;;;;;;;;;;5091371;28;20395;-93
2022/01/29 02:55:02;;;;;;;46.10;26.13;;;;;;;;;;5059412;28;20451;-90
2022/01/29 02:57:28;;;;;;;52.42;26.05;;;;;;;;;;5074240;28;20047;-90
2022/01/29 02:59:57;;;;;;;53.45;26.25;;;;;;;;;;5075013;28;20047;-89
2022/01/29 03:02:23;;;;;;;46.78;26.42;;;;;;;;;;5075587;28;20046;-92
2022/01/29 03:04:49;;;;;;;44.80;24.65;;;;;;;;;;5108069;28;20036;-91
2022/01/29 03:07:16;;;;;;;48.42;24.77;;;;;;;;;;5091090;28;20032;-93
2022/01/29 03:09:42;;;;;;;42.92;25.10;;;;;;;;;;5057492;28;20058;-92
2022/01/29 03:12:08;;;;;;;47.20;26.10;;;;;;;;;;5074446;28;20036;-92
2022/01/29 03:14:34;;;;;;;45.55;25.10;;;;;;;;;;5108092;28;20047;-91
2022/01/29 03:17:01;;;;;;;48.67;26.08;;;;;;;;;;5056101;28;20040;-92
2022/01/29 03:19:27;;;;;;;48.33;27.00;;;;;;;;;;5057673;28;20055;-93
2022/01/29 03:21:53;;;;;;;44.17;25.15;;;;;;;;;;5074072;28;20052;-92
2022/01/29 03:24:20;;;;;;;41.15;24.40;;;;;;;;;;5090571;28;20119;-89
2022/01/29 03:26:46;;;;;;;46.28;26.25;;;;;;;;;;5091162;28;20048;-88
2022/01/29 03:29:12;;;;;;;46.72;25.45;;;;;;;;;;5075097;28;20086;-91
2022/01/29 03:31:38;;;;;;;47.35;25.23;;;;;;;;;;5072896;28;20085;-90
2022/01/29 03:34:04;;;;;;;41.80;25.73;;;;;;;;;;5108150;28;20399;-88
2022/01/29 03:36:31;;;;;;;45.40;24.17;;;;;;;;;;5089161;28;20070;-91
2022/01/29 03:38:57;;;;;;;43.83;24.17;;;;;;;;;;5073533;28;20036;-92
2022/01/29 03:41:23;;;;;;;50.72;25.40;;;;;;;;;;5089148;28;20071;-91
2022/01/29 03:43:52;;;;;;;43.78;24.52;;;;;;;;;;5075480;28;20470;-92
2022/01/29 03:46:18;;;;;;;44.90;24.85;;;;;;;;;;5109596;28;20499;-90
2022/01/29 03:48:44;;;;;;;47.13;25.83;;;;;;;;;;5095248;28;20105;-91
2022/01/29 03:51:10;;;;;;;42.42;24.52;;;;;;;;;;5060319;28;20039;-93
2022/01/29 03:53:37;;;;;;;38.88;23.35;;;;;;;;;;5077202;28;20047;-92
2022/01/29 03:56:03;;;;;;;36.67;23.15;;;;;;;;;;5093677;28;20036;-92
2022/01/29 03:58:29;;;;;;;40.13;24.40;;;;;;;;;;5076430;28;20126;-92
2022/01/29 04:00:55;;;;;;;37.25;23.52;;;;;;;;;;5111137;28;20407;-88
2022/01/29 04:03:22;;;;;;;45.00;24.02;;;;;;;;;;5093658;28;20055;-91
2022/01/29 04:05:48;;;;;;;44.85;23.10;;;;;;;;;;5062779;28;20036;-90
2022/01/29 04:08:17;;;;;;;38.00;23.35;;;;;;;;;;5076856;28;20040;-92
2022/01/29 04:10:43;;;;;;;40.85;23.17;;;;;;;;;;5076184;28;20040;-90
2022/01/29 04:13:12;;;;;;;45.58;24.42;;;;;;;;;;5059622;28;20044;-91
2022/01/29 04:15:38;;;;;;;37.38;22.10;;;;;;;;;;5111608;28;20044;-91
2022/01/29 04:18:04;;;;;;;39.90;23.02;;;;;;;;;;5077524;28;20047;-92
2022/01/29 04:20:31;;;;;;;45.45;22.80;;;;;;;;;;5092720;28;20040;-90
2022/01/29 04:22:58;;;;;;;39.78;22.35;;;;;;;;;;5076443;28;20051;-91
2022/01/29 04:25:24;;;;;;;40.65;21.30;;;;;;;;;;5077369;28;20036;-89
2022/01/29 04:27:51;;;;;;;39.97;22.08;;;;;;;;;;5093460;28;20062;-92
2022/01/29 04:30:29;;;;;;;40.30;23.85;;;;;;;;;;5094295;28;20127;-90
2022/01/29 04:33:01;;;;;;;39.25;22.45;;;;;;;;;;5111412;28;20510;-92
2022/01/29 04:35:28;;;;;;;37.97;22.85;;;;;;;;;;5077727;28;20048;-92
2022/01/29 04:37:54;;;;;;;35.85;21.58;;;;;;;;;;5109635;28;20071;-92
2022/01/29 04:40:21;;;;;;;36.42;21.75;;;;;;;;;;5111182;28;20040;-89
2022/01/29 04:42:50;;;;;;;40.00;22.77;;;;;;;;;;5109911;28;20124;-93
2022/01/29 04:45:41;;;;;;;33.72;20.60;;;;;;;;;;5076863;28;20043;-89
2022/01/29 04:48:07;;;;;;;45.13;20.80;;;;;;;;;;5111671;28;20119;-88
2022/01/29 04:50:34;;;;;;;36.78;20.75;;;;;;;;;;5093093;28;20036;-91
2022/01/29 04:53:00;;;;;;;35.47;20.80;;;;;;;;;;5109848;28;20050;-92
2022/01/29 04:55:26;;;;;;;36.65;20.73;;;;;;;;;;5075037;28;20040;-91
2022/01/29 04:57:52;;;;;;;35.45;20.52;;;;;;;;;;5092342;28;20044;-88
2022/01/29 05:00:21;;;;;;;31.90;19.88;;;;;;;;;;5092311;28;20047;-92
2022/01/29 05:02:48;;;;;;;32.92;19.85;;;;;;;;;;5109952;28;20032;-91
2022/01/29 05:05:14;;;;;;;32.33;19.85;;;;;;;;;;5092053;28;20046;-91
2022/01/29 05:07:41;;;;;;;30.65;20.10;;;;;;;;;;5094385;28;20149;-89
2022/01/29 05:10:07;;;;;;;33.30;19.77;;;;;;;;;;5093382;28;20081;-91
2022/01/29 05:13:00;;;;;;;32.70;19.70;;;;;;;;;;5092742;28;20558;-93
2022/01/29 05:28:48;;;;;;;33.80;19.85;;;;;;;;;;5109069;28;20036;-93
2022/01/29 05:31:14;;;;;;;31.77;19.17;;;;;;;;;;5109973;28;20123;-92
2022/01/29 05:33:41;;;;;;;36.25;19.80;;;;;;;;;;5093565;28;20051;-93
2022/01/29 05:36:07;;;;;;;29.15;18.45;;;;;;;;;;5058732;28;20488;-92
2022/01/29 05:38:34;;;;;;;32.95;19.10;;;;;;;;;;5058760;28;20044;-91
2022/01/29 05:41:00;;;;;;;33.08;19.75;;;;;;;;;;5060195;28;20586;-88
2022/01/29 05:43:26;;;;;;;33.55;19.45;;;;;;;;;;5109587;28;20040;-87
2022/01/29 05:45:52;;;;;;;31.83;18.90;;;;;;;;;;5110032;28;20036;-94
2022/01/29 05:48:18;;;;;;;34.20;19.17;;;;;;;;;;5074328;28;20074;-88
2022/01/29 05:50:45;;;;;;;29.83;18.65;;;;;;;;;;5059867;28;20511;-92
2022/01/29 05:53:11;;;;;;;31.70;19.08;;;;;;;;;;5079138;28;20046;-92
2022/01/29 05:55:37;;;;;;;31.63;18.60;;;;;;;;;;5074880;28;20044;-91
2022/01/29 05:58:03;;;;;;;26.40;17.38;;;;;;;;;;5091326;28;20043;-85
2022/01/29 06:00:30;;;;;;;34.30;18.67;;;;;;;;;;5086095;28;20076;-92
2022/01/29 06:03:00;;;;;;;28.35;18.25;;;;;;;;;;5058932;28;20119;-94
2022/01/29 06:05:26;;;;;;;28.90;18.40;;;;;;;;;;5075151;28;20506;-92
2022/01/29 06:07:52;;;;;;;30.20;18.15;;;;;;;;;;5091089;28;20050;-94
2022/01/29 06:10:18;;;;;;;31.33;18.00;;;;;;;;;;5058217;28;20046;-92
2022/01/29 06:12:44;;;;;;;31.30;18.02;;;;;;;;;;5110398;28;20046;-91
2022/01/29 06:15:11;;;;;;;27.08;17.45;;;;;;;;;;5091333;28;20085;-91
2022/01/29 06:17:39;;;;;;;28.92;16.40;;;;;;;;;;5092957;28;20040;-89
2022/01/29 06:20:05;;;;;;;26.10;17.33;;;;;;;;;;5073642;28;20144;-93
2022/01/29 06:22:32;;;;;;;31.77;17.77;;;;;;;;;;5074514;28;20055;-92
2022/01/29 06:24:58;;;;;;;26.98;17.73;;;;;;;;;;5091076;28;20514;-92
2022/01/29 06:27:24;;;;;;;29.27;17.05;;;;;;;;;;5107460;28;20036;-89
2022/01/29 06:29:51;;;;;;;28.48;16.45;;;;;;;;;;5092002;28;20098;-93
2022/01/29 06:32:17;;;;;;;27.45;16.73;;;;;;;;;;5074367;28;20040;-91
2022/01/29 06:34:43;;;;;;;27.58;16.73;;;;;;;;;;5074568;28;20193;-92
2022/01/29 06:37:10;;;;;;;24.20;15.60;;;;;;;;;;5091260;28;20507;-90
2022/01/29 06:39:36;;;;;;;27.98;16.48;;;;;;;;;;5074211;28;20040;-92
2022/01/29 06:42:02;;;;;;;27.13;15.75;;;;;;;;;;5091792;28;20063;-91
2022/01/29 06:44:28;;;;;;;27.70;16.67;;;;;;;;;;5075251;28;20047;-93
2022/01/29 06:46:54;;;;;;;27.60;15.63;;;;;;;;;;5093247;28;20637;-89
2022/01/29 06:49:21;;;;;;;27.40;15.82;;;;;;;;;;5058480;28;20039;-92
2022/01/29 06:51:47;;;;;;;25.38;15.52;;;;;;;;;;5074890;28;20043;-91
2022/01/29 06:54:13;;;;;;;26.08;15.68;;;;;;;;;;5076002;28;20085;-93
2022/01/29 06:56:39;;;;;;;28.38;14.80;;;;;;;;;;5075656;28;20123;-92
2022/01/29 06:59:05;;;;;;;24.77;14.75;;;;;;;;;;5090820;28;20037;-92
2022/01/29 07:01:31;;;;;;;24.02;14.93;;;;;;;;;;5073882;28;20083;-92
2022/01/29 07:03:58;;;;;;;28.67;15.40;;;;;;;;;;5091962;28;20036;-93
2022/01/29 07:06:24;;;;;;;25.20;14.48;;;;;;;;;;5093316;28;20032;-91
2022/01/29 07:08:50;;;;;;;22.33;13.65;;;;;;;;;;5090691;28;20081;-91
2022/01/29 07:11:20;;;;;;;24.70;14.88;;;;;;;;;;5091003;28;20040;-93
2022/01/29 07:13:46;;;;;;;24.08;13.23;;;;;;;;;;5072953;28;20043;-87
2022/01/29 07:16:12;;;;;;;23.17;13.25;;;;;;;;;;5089209;28;20035;-92
2022/01/29 07:18:38;;;;;;;24.75;14.60;;;;;;;;;;5085845;28;20052;-92
2022/01/29 07:21:04;;;;;;;21.95;13.43;;;;;;;;;;5057036;28;20049;-86
2022/01/29 07:23:31;;;;;;;22.90;13.60;;;;;;;;;;5058182;28;20045;-92
2022/01/29 07:25:57;;;;;;;23.92;14.40;;;;;;;;;;5077607;28;20048;-93
2022/01/29 07:28:23;;;;;;;22.65;12.88;;;;;;;;;;5079401;28;20059;-91
2022/01/29 07:30:49;;;;;;;25.52;13.30;;;;;;;;;;5062490;28;20048;-90
2022/01/29 07:33:15;;;;;;;22.70;12.90;;;;;;;;;;5085322;28;20040;-90
2022/01/29 07:35:41;;;;;;;23.75;14.27;;;;;;;;;;5078308;28;20466;-92
2022/01/29 07:38:08;;;;;;;22.25;13.48;;;;;;;;;;5076766;28;20104;-91
2022/01/29 07:40:34;;;;;;;23.73;13.52;;;;;;;;;;5076913;28;20071;-92
2022/01/29 07:43:00;;;;;;;21.55;13.30;;;;;;;;;;5043280;28;20040;-93
2022/01/29 07:45:26;;;;;;;24.17;13.93;;;;;;;;;;5070207;28;20040;-90
2022/01/29 07:47:52;;;;;;;23.15;13.40;;;;;;;;;;5076584;28;20036;-91
2022/01/29 07:50:18;;;;;;;22.83;13.73;;;;;;;;;;5063320;28;20043;-91
2022/01/29 07:52:45;;;;;;;24.95;14.00;;;;;;;;;;5043499;28;20033;-90
2022/01/29 07:55:11;;;;;;;22.63;13.70;;;;;;;;;;5067772;28;20040;-89
2022/01/29 07:57:59;;;;;;;25.10;13.85;;;;;;;;;;5055956;28;20423;-91
2022/01/29 08:00:29;;;;;;;25.38;14.13;;;;;;;;;;5055121;28;20041;-89
2022/01/29 08:02:56;;;;;;;24.38;14.05;;;;;;;;;;5050637;28;20345;-92
2022/01/29 08:05:23;;;;;;;25.13;14.98;;;;;;;;;;5054391;28;20064;-90
2022/01/29 08:07:59;;;;;;;27.88;14.40;;;;;;;;;;5068354;28;20024;-91
2022/01/29 08:10:25;;;;;;;29.23;15.40;;;;;;;;;;5045883;28;20032;-89
2022/01/29 08:12:52;;;;;;;26.02;15.40;;;;;;;;;;5037472;28;20044;-93
2022/01/29 08:15:18;;;;;;;25.92;15.63;;;;;;;;;;5073077;28;20045;-94
2022/01/29 08:17:44;;;;;;;24.52;15.18;;;;;;;;;;5068347;28;20040;-93
2022/01/29 08:20:12;;;;;;;24.08;14.95;;;;;;;;;;5110677;28;20051;-89
2022/01/29 08:22:38;;;;;;;27.08;15.63;;;;;;;;;;5094913;28;20040;-92
2022/01/29 08:25:05;;;;;;;23.45;15.02;;;;;;;;;;5091840;28;20067;-91
2022/01/29 08:27:31;;;;;;;24.02;14.55;;;;;;;;;;5095172;28;20040;-92
2022/01/29 08:29:57;;;;;;;25.33;14.60;;;;;;;;;;5078750;28;20058;-91
2022/01/29 08:32:23;;;;;;;22.88;14.80;;;;;;;;;;5064346;28;20036;-92
2022/01/29 08:34:49;;;;;;;23.10;14.85;;;;;;;;;;5093937;28;20043;-92
2022/01/29 08:37:16;;;;;;;21.58;14.77;;;;;;;;;;5092811;28;20044;-89
2022/01/29 08:39:42;;;;;;;23.45;14.05;;;;;;;;;;5073164;28;20051;-93
2022/01/29 08:42:08;;;;;;;22.27;14.73;;;;;;;;;;5057076;28;20040;-93
2022/01/29 08:44:35;;;;;;;25.23;14.95;;;;;;;;;;5090123;28;20040;-91
2022/01/29 08:47:02;;;;;;;21.13;14.00;;;;;;;;;;5074109;28;20508;-90
2022/01/29 08:49:28;;;;;;;18.92;12.85;;;;;;;;;;5063314;28;20166;-91
2022/01/29 08:51:54;;;;;;;20.92;12.63;;;;;;;;;;5064085;28;20064;-86
2022/01/29 08:54:21;;;;;;;19.27;12.38;;;;;;;;;;5056730;28;20043;-93
2022/01/29 08:56:47;;;;;;;23.65;13.18;;;;;;;;;;5056065;28;20119;-91
2022/01/29 08:59:13;;;;;;;18.80;12.50;;;;;;;;;;5063457;28;20040;-92
2022/01/29 09:01:39;;;;;;;22.45;12.27;;;;;;;;;;5064892;28;20040;-91
2022/01/29 09:04:05;;;;;;;16.85;10.88;;;;;;;;;;5071434;28;20384;-92
2022/01/29 09:06:31;;;;;;;19.73;10.82;;;;;;;;;;5095406;28;20044;-91
2022/01/29 09:08:58;;;;;;;18.23;9.57;;;;;;;;;;5071922;28;20036;-93
2022/01/29 09:11:24;;;;;;;16.92;9.90;;;;;;;;;;5066033;28;20059;-89
2022/01/29 09:13:50;;;;;;;16.75;9.60;;;;;;;;;;5061280;28;20040;-91
2022/01/29 09:16:16;;;;;;;16.10;8.85;;;;;;;;;;5071863;28;20043;-90
2022/01/29 09:18:42;;;;;;;15.60;8.82;;;;;;;;;;5056896;28;20426;-93
2022/01/29 09:21:09;;;;;;;15.95;8.52;;;;;;;;;;5047874;28;20051;-93
2022/01/29 09:23:36;;;;;;;14.98;7.45;;;;;;;;;;5053316;28;20488;-88
2022/01/29 09:26:03;;;;;;;16.30;7.75;;;;;;;;;;5070551;28;20037;-90
2022/01/29 09:28:29;;;;;;;16.08;7.88;;;;;;;;;;5054510;28;20488;-87
2022/01/29 09:30:55;;;;;;;13.65;6.82;;;;;;;;;;5087431;28;20470;-88
2022/01/29 09:33:21;;;;;;;12.77;7.30;;;;;;;;;;5087351;28;20137;-93
2022/01/29 09:35:47;;;;;;;15.18;7.32;;;;;;;;;;5077437;28;20037;-89
2022/01/29 09:38:14;;;;;;;15.07;7.22;;;;;;;;;;5053558;28;20045;-92
2022/01/29 09:40:42;;;;;;;12.43;6.90;;;;;;;;;;5086602;28;20127;-89
2022/01/29 09:43:10;;;;;;;13.77;7.30;;;;;;;;;;5069433;28;20040;-91
2022/01/29 09:45:37;;;;;;;12.50;6.38;;;;;;;;;;5086832;28;20047;-87
2022/01/29 09:48:03;;;;;;;11.80;6.60;;;;;;;;;;5087626;28;20050;-92
2022/01/29 09:50:31;;;;;;;14.68;6.75;;;;;;;;;;5069605;28;20036;-90
2022/01/29 09:52:57;;;;;;;11.23;5.88;;;;;;;;;;5087515;28;20393;-93
2022/01/29 09:55:23;;;;;;;14.55;7.00;;;;;;;;;;5069889;28;20079;-90
2022/01/29 09:57:50;;;;;;;11.88;6.32;;;;;;;;;;5069731;28;20085;-92
2022/01/29 10:00:16;;;;;;;10.38;6.05;;;;;;;;;;5070161;28;20075;-87
2022/01/29 10:02:43;;;;;;;11.55;6.45;;;;;;;;;;5075451;28;20510;-94
2022/01/29 10:05:12;;;;;;;16.83;7.20;;;;;;;;;;5044076;28;20400;-88
2022/01/29 10:07:38;;;;;;;15.75;7.40;;;;;;;;;;5072247;28;20044;-93
2022/01/29 10:10:17;;;;;;;15.15;6.53;;;;;;;;;;5058214;28;20073;-91
2022/01/29 10:12:43;;;;;;;16.40;6.50;;;;;;;;;;5064473;28;20097;-90
2022/01/29 10:15:09;;;;;;;13.23;6.88;;;;;;;;;;5070735;28;20462;-89
2022/01/29 10:17:43;;;;;;;13.55;6.20;;;;;;;;;;5085737;28;20040;-92
2022/01/29 10:20:22;;;;;;;14.57;6.53;;;;;;;;;;5088321;28;20058;-89
2022/01/29 10:22:49;;;;;;;11.85;6.03;;;;;;;;;;5055471;28;20085;-89
2022/01/29 10:25:32;;;;;;;12.55;5.90;;;;;;;;;;5089800;28;20765;-91
2022/01/29 10:28:11;;;;;;;11.88;5.75;;;;;;;;;;5106859;28;20418;-85
2022/01/29 10:30:49;;;;;;;12.70;5.47;;;;;;;;;;5071824;28;20446;-87
2022/01/29 10:33:20;;;;;;;11.27;5.80;;;;;;;;;;5088951;28;20032;-92
2022/01/29 10:35:56;;;;;;;12.20;5.75;;;;;;;;;;5090493;28;20168;-91
2022/01/29 10:38:24;;;;;;;12.38;5.38;;;;;;;;;;5056691;28;20050;-93
2022/01/29 10:41:10;;;;;;;13.60;5.47;;;;;;;;;;5057038;28;20542;-92
2022/01/29 10:43:36;;;;;;;11.90;5.22;;;;;;;;;;5071993;28;20036;-89
2022/01/29 10:46:03;;;;;;;10.35;5.15;;;;;;;;;;5071492;28;20154;-93
2022/01/29 10:48:43;;;;;;;12.32;5.60;;;;;;;;;;5106170;28;20055;-88
2022/01/29 10:51:13;;;;;;;12.27;5.03;;;;;;;;;;5056358;28;20044;-91
2022/01/29 10:53:39;;;;;;;12.32;4.90;;;;;;;;;;5071967;28;20039;-90
2022/01/29 10:56:06;;;;;;;11.40;4.88;;;;;;;;;;5106849;28;20089;-89
2022/01/29 10:58:40;;;;;;;10.93;4.70;;;;;;;;;;5088830;28;20491;-88
2022/01/29 11:01:17;;;;;;;10.80;4.45;;;;;;;;;;5105474;28;20491;-89
2022/01/29 11:03:43;;;;;;;10.23;4.28;;;;;;;;;;5055178;28;20126;-89
2022/01/29 11:06:11;;;;;;;11.00;4.63;;;;;;;;;;5055437;28;20044;-90
2022/01/29 11:08:38;;;;;;;10.02;4.22;;;;;;;;;;5105496;28;20043;-92
2022/01/29 11:11:04;;;;;;;11.13;4.18;;;;;;;;;;5071811;28;20040;-87
2022/01/29 11:13:30;;;;;;;9.90;4.00;;;;;;;;;;5071907;28;20085;-93
2022/01/29 11:15:57;;;;;;;12.13;4.30;;;;;;;;;;5088240;28;20047;-89
2022/01/29 11:18:26;;;;;;;11.48;3.83;;;;;;;;;;5054934;28;20044;-87
2022/01/29 11:20:55;;;;;;;13.55;4.57;;;;;;;;;;5084751;28;20431;-90
2022/01/29 11:23:32;;;;;;;12.15;4.30;;;;;;;;;;5064473;28;20043;-89
2022/01/29 11:26:02;;;;;;;10.02;4.25;;;;;;;;;;5064657;28;20411;-87
2022/01/29 11:28:29;;;;;;;10.15;3.72;;;;;;;;;;5062479;28;20028;-89
2022/01/29 11:31:14;;;;;;;9.80;3.90;;;;;;;;;;5088290;28;20507;-90
2022/01/29 11:33:58;;;;;;;11.60;3.90;;;;;;;;;;5063328;28;20039;-89
2022/01/29 11:36:43;;;;;;;9.13;3.63;;;;;;;;;;5084047;28;20100;-90
2022/01/29 11:39:09;;;;;;;;;;;;;;;;;;5063989;28;20044;-92
2022/01/29 11:41:35;;;;;;;11.63;3.42;;;;;;;;;;5078238;28;19929;-86
2022/01/29 11:44:21;;;;;;;8.93;3.70;;;;;;;;;;5081201;28;20503;-90
2022/01/29 11:46:48;;;;;;;11.90;3.90;;;;;;;;;;5098345;28;20483;-90
2022/01/29 11:49:18;;;;;;;9.40;3.15;;;;;;;;;;5076426;28;20039;-87
2022/01/29 11:51:48;;;;;;;9.98;2.90;;;;;;;;;;5081772;28;20107;-89
2022/01/29 11:54:21;;;;;;;10.38;2.95;;;;;;;;;;5111846;28;20035;-87
2022/01/29 11:57:07;;;;;;;12.13;3.25;;;;;;;;;;5079140;28;20093;-88
2022/01/29 11:59:34;;;;;;;11.95;2.97;;;;;;;;;;5097681;28;20062;-89
2022/01/29 12:02:02;;;;;;;10.90;3.40;;;;;;;;;;5113013;28;20046;-94
2022/01/29 12:04:46;;;;;;;8.65;3.22;;;;;;;;;;5081561;28;20376;-90
2022/01/29 12:07:17;;;;;;;9.93;2.60;;;;;;;;;;5070319;28;20025;-85
2022/01/29 12:09:51;;;;;;;9.30;2.60;;;;;;;;;;5062714;28;20036;-85
2022/01/29 12:12:18;;;;;;;6.63;2.60;;;;;;;;;;5072749;28;20425;-94
2022/01/29 12:14:45;;;;;;;11.90;3.10;;;;;;;;;;5085102;28;20408;-88
2022/01/29 12:17:11;;;;;;;13.65;2.90;;;;;;;;;;5078898;28;20228;-89
2022/01/29 12:19:42;;;;;;;9.93;2.65;;;;;;;;;;5117062;27;20485;-87
2022/01/29 12:22:10;;;;;;;9.02;2.50;;;;;;;;;;5084569;28;20042;-87
2022/01/29 12:24:37;;;;;;;7.72;2.45;;;;;;;;;;5077041;28;20562;-85
2022/01/29 12:27:03;;;;;;;8.05;2.40;;;;;;;;;;5073393;28;20032;-89
2022/01/29 12:29:30;;;;;;;9.35;2.70;;;;;;;;;;5119979;27;20609;-91
2022/01/29 12:31:57;;;;;;;10.00;2.78;;;;;;;;;;5123037;27;20048;-91
2022/01/29 12:34:25;;;;;;;10.27;2.58;;;;;;;;;;5092273;28;20039;-90
2022/01/29 12:37:08;;;;;;;10.35;2.80;;;;;;;;;;5086242;28;20036;-90
2022/01/29 12:39:35;;;;;;;9.25;2.30;;;;;;;;;;5070277;28;20035;-88
2022/01/29 12:42:11;;;;;;;9.18;2.55;;;;;;;;;;5075490;28;20051;-87
2022/01/29 12:44:38;;;;;;;11.13;2.33;;;;;;;;;;5084363;28;20040;-92
2022/01/29 12:47:04;;;;;;;12.93;2.83;;;;;;;;;;5082782;28;20036;-86
2022/01/29 12:49:39;;;;;;;7.38;2.33;;;;;;;;;;5068284;28;20040;-87
2022/01/29 12:52:08;;;;;;;9.00;2.88;;;;;;;;;;5105628;28;20035;-91
2022/01/29 12:54:35;;;;;;;11.40;2.80;;;;;;;;;;5074714;28;20490;-89
2022/01/29 12:57:01;;;;;;;6.55;2.50;;;;;;;;;;5073833;28;20293;-90
2022/01/29 12:59:27;;;;;;;7.38;2.55;;;;;;;;;;5090511;28;20068;-88
2022/01/29 13:01:56;;;;;;;8.48;2.50;;;;;;;;;;5075801;28;20062;-90
2022/01/29 13:04:23;;;;;;;9.80;2.25;;;;;;;;;;5067098;28;20042;-91
2022/01/29 13:07:00;;;;;;;9.27;2.58;;;;;;;;;;5084110;28;20048;-90
2022/01/29 13:09:27;;;;;;;10.60;2.38;;;;;;;;;;5070074;28;20038;-93
2022/01/29 13:11:57;;;;;;;9.38;2.65;;;;;;;;;;5067602;28;20491;-93
2022/01/29 13:14:24;;;;;;;8.63;2.47;;;;;;;;;;5067929;28;20112;-89
2022/01/29 13:16:54;;;;;;;11.00;3.20;;;;;;;;;;5073376;28;20039;-89
2022/01/29 13:19:22;;;;;;;7.15;2.38;;;;;;;;;;5077282;28;20048;-92
2022/01/29 13:21:48;;;;;;;13.95;2.78;;;;;;;;;;5078693;28;20058;-90
2022/01/29 13:24:28;;;;;;;12.27;2.55;;;;;;;;;;5056307;28;20036;-89
2022/01/29 13:27:06;;;;;;;5.88;1.80;;;;;;;;;;5084055;28;20107;-89
2022/01/29 13:29:34;;;;;;;9.02;2.33;;;;;;;;;;5076829;28;20487;-92
2022/01/29 13:32:04;;;;;;;9.65;2.47;;;;;;;;;;5083122;28;20467;-87
2022/01/29 13:34:43;;;;;;;8.32;2.45;;;;;;;;;;5074621;28;20032;-91
2022/01/29 13:37:29;;;;;;;13.15;2.45;;;;;;;;;;5056076;28;20040;-91
2022/01/29 13:39:56;;;;;;;6.97;2.35;;;;;;;;;;5090055;28;20048;-90
2022/01/29 13:42:25;;;;;;;8.57;2.28;;;;;;;;;;5106034;28;20091;-85
2022/01/29 13:45:09;;;;;;;9.32;2.47;;;;;;;;;;5056358;28;20040;-86
2022/01/29 13:47:36;;;;;;;6.90;2.08;;;;;;;;;;5072347;28;20035;-87
2022/01/29 13:50:21;;;;;;;9.00;2.33;;;;;;;;;;5056359;28;20424;-86
2022/01/29 13:52:58;;;;;;;9.13;2.20;;;;;;;;;;5056963;28;20082;-87
2022/01/29 13:55:24;;;;;;;7.57;2.20;;;;;;;;;;5083467;28;20044;-89
2022/01/29 13:58:00;;;;;;;8.57;2.42;;;;;;;;;;5064367;28;20536;-87
2022/01/29 14:00:26;;;;;;;6.68;1.80;;;;;;;;;;5077142;28;20446;-86
2022/01/29 14:02:52;;;;;;;10.05;2.35;;;;;;;;;;5067272;28;20128;-90
2022/01/29 14:05:23;;;;;;;9.90;1.90;;;;;;;;;;5062389;28;20034;-89
2022/01/29 14:07:50;;;;;;;8.90;2.03;;;;;;;;;;5121191;27;20507;-85
2022/01/29 14:10:17;;;;;;;9.95;2.47;;;;;;;;;;5099502;28;20036;-84
2022/01/29 14:12:48;;;;;;;7.25;2.00;;;;;;;;;;5066329;28;20402;-87
2022/01/29 14:15:16;;;;;;;7.55;2.25;;;;;;;;;;5070166;28;20084;-89
2022/01/29 14:17:42;;;;;;;7.55;2.10;;;;;;;;;;5069376;28;20046;-89
2022/01/29 14:20:08;;;;;;;6.07;1.92;;;;;;;;;;5073234;28;20297;-85
2022/01/29 14:22:36;;;;;;;11.43;2.10;;;;;;;;;;5062880;28;20028;-92
2022/01/29 14:25:07;;;;;;;5.38;1.73;;;;;;;;;;5086849;28;20047;-84
2022/01/29 14:27:33;;;;;;;5.53;1.80;;;;;;;;;;5052861;28;20075;-84
2022/01/29 14:30:00;;;;;;;6.97;1.85;;;;;;;;;;5045859;28;20118;-87
2022/01/29 14:32:28;;;;;;;5.95;1.83;;;;;;;;;;5072309;28;20407;-87
2022/01/29 14:34:54;;;;;;;6.65;2.10;;;;;;;;;;5072666;28;20050;-87
2022/01/29 14:37:20;;;;;;;10.98;2.47;;;;;;;;;;5072581;28;20539;-88
2022/01/29 14:39:50;;;;;;;7.97;2.10;;;;;;;;;;5056737;28;20051;-88
2022/01/29 14:42:25;;;;;;;9.23;2.33;;;;;;;;;;5089389;28;20040;-91
2022/01/29 14:44:52;;;;;;;6.70;2.13;;;;;;;;;;5090238;28;20078;-87